sensor_id;sensor_type;location;lat;lon;timestamp;P1;durP1;ratioP1;P2;durP2;ratioP2
75377;SDS011;63959;51.960;5.886;2023-04-03T00:01:25;4.35;;;1.58;;
75377;SDS011;63959;51.960;5.886;2023-04-03T00:03:54;4.85;;;1.70;;
75377;SDS011;63959;51.960;5.886;2023-04-03T00:06:23;4.00;;;1.30;;
75377;SDS011;63959;51.960;5.886;2023-04-03T00:08:52;4.72;;;1.30;;
75377;SDS011;63959;51.960;5.886;2023-04-03T00:11:21;3.85;;;1.25;;
75377;SDS011;63959;51.960;5.886;2023-04-03T00:13:50;5.47;;;1.60;;
75377;SDS011;63959;51.960;5.886;2023-04-03T00:16:22;3.70;;;1.27;;
75377;SDS011;63959;51.960;5.886;2023-04-03T00:18:51;5.22;;;1.67;;
75377;SDS011;63959;51.960;5.886;2023-04-03T00:21:19;4.47;;;1.70;;
75377;SDS011;63959;51.960;5.886;2023-04-03T00:23:48;4.53;;;1.40;;
75377;SDS011;63959;51.960;5.886;2023-04-03T00:26:17;4.47;;;1.60;;
75377;SDS011;63959;51.960;5.886;2023-04-03T00:28:55;5.20;;;1.80;;
75377;SDS011;63959;51.960;5.886;2023-04-03T00:31:35;3.65;;;1.20;;
75377;SDS011;63959;51.960;5.886;2023-04-03T00:34:03;5.88;;;1.60;;
75377;SDS011;63959;51.960;5.886;2023-04-03T00:36:32;7.07;;;1.63;;
75377;SDS011;63959;51.960;5.886;2023-04-03T00:39:01;5.15;;;1.23;;
75377;SDS011;63959;51.960;5.886;2023-04-03T00:41:30;5.63;;;1.52;;
75377;SDS011;63959;51.960;5.886;2023-04-03T00:43:58;4.40;;;1.70;;
75377;SDS011;63959;51.960;5.886;2023-04-03T00:46:27;4.15;;;1.27;;
75377;SDS011;63959;51.960;5.886;2023-04-03T00:48:59;5.63;;;1.63;;
75377;SDS011;63959;51.960;5.886;2023-04-03T00:51:27;4.35;;;1.30;;
75377;SDS011;63959;51.960;5.886;2023-04-03T00:53:58;5.15;;;1.63;;
75377;SDS011;63959;51.960;5.886;2023-04-03T00:56:27;5.72;;;1.77;;
75377;SDS011;63959;51.960;5.886;2023-04-03T00:58:57;4.70;;;1.33;;
75377;SDS011;63959;51.960;5.886;2023-04-03T01:01:27;5.25;;;2.17;;
75377;SDS011;63959;51.960;5.886;2023-04-03T01:04:00;5.35;;;1.60;;
75377;SDS011;63959;51.960;5.886;2023-04-03T01:06:30;3.70;;;1.40;;
75377;SDS011;63959;51.960;5.886;2023-04-03T01:09:05;4.40;;;1.48;;
75377;SDS011;63959;51.960;5.886;2023-04-03T01:11:34;3.97;;;1.38;;
75377;SDS011;63959;51.960;5.886;2023-04-03T01:14:03;4.78;;;1.83;;
75377;SDS011;63959;51.960;5.886;2023-04-03T01:16:32;4.43;;;1.40;;
75377;SDS011;63959;51.960;5.886;2023-04-03T01:19:03;4.82;;;1.40;;
75377;SDS011;63959;51.960;5.886;2023-04-03T01:21:47;6.32;;;1.80;;
75377;SDS011;63959;51.960;5.886;2023-04-03T01:24:31;6.18;;;1.55;;
75377;SDS011;63959;51.960;5.886;2023-04-03T01:27:03;5.30;;;1.40;;
75377;SDS011;63959;51.960;5.886;2023-04-03T01:29:32;4.13;;;1.50;;
75377;SDS011;63959;51.960;5.886;2023-04-03T01:32:04;3.63;;;1.30;;
75377;SDS011;63959;51.960;5.886;2023-04-03T01:34:33;6.05;;;1.85;;
75377;SDS011;63959;51.960;5.886;2023-04-03T01:37:02;5.43;;;1.67;;
75377;SDS011;63959;51.960;5.886;2023-04-03T01:39:31;4.68;;;1.50;;
75377;SDS011;63959;51.960;5.886;2023-04-03T01:42:03;5.25;;;1.67;;
75377;SDS011;63959;51.960;5.886;2023-04-03T01:44:38;5.95;;;2.00;;
75377;SDS011;63959;51.960;5.886;2023-04-03T01:47:10;6.20;;;2.28;;
75377;SDS011;63959;51.960;5.886;2023-04-03T01:49:40;4.20;;;1.67;;
75377;SDS011;63959;51.960;5.886;2023-04-03T01:52:09;4.95;;;1.70;;
75377;SDS011;63959;51.960;5.886;2023-04-03T01:54:38;5.53;;;1.77;;
75377;SDS011;63959;51.960;5.886;2023-04-03T01:57:06;3.72;;;1.50;;
75377;SDS011;63959;51.960;5.886;2023-04-03T01:59:36;5.50;;;1.42;;
75377;SDS011;63959;51.960;5.886;2023-04-03T02:02:06;9.05;;;1.73;;
75377;SDS011;63959;51.960;5.886;2023-04-03T02:04:38;5.78;;;1.60;;
75377;SDS011;63959;51.960;5.886;2023-04-03T02:07:06;5.07;;;1.60;;
75377;SDS011;63959;51.960;5.886;2023-04-03T02:09:35;5.20;;;1.80;;
75377;SDS011;63959;51.960;5.886;2023-04-03T02:12:04;6.18;;;1.40;;
75377;SDS011;63959;51.960;5.886;2023-04-03T02:14:33;5.95;;;1.95;;
75377;SDS011;63959;51.960;5.886;2023-04-03T02:17:05;6.65;;;1.73;;
75377;SDS011;63959;51.960;5.886;2023-04-03T02:19:34;5.65;;;1.80;;
75377;SDS011;63959;51.960;5.886;2023-04-03T02:22:06;4.88;;;1.83;;
75377;SDS011;63959;51.960;5.886;2023-04-03T02:24:35;5.85;;;1.45;;
75377;SDS011;63959;51.960;5.886;2023-04-03T02:27:04;5.35;;;1.83;;
75377;SDS011;63959;51.960;5.886;2023-04-03T02:29:33;5.80;;;1.70;;
75377;SDS011;63959;51.960;5.886;2023-04-03T02:32:02;6.50;;;1.90;;
75377;SDS011;63959;51.960;5.886;2023-04-03T02:34:31;4.95;;;1.77;;
75377;SDS011;63959;51.960;5.886;2023-04-03T02:37:01;7.32;;;1.80;;
75377;SDS011;63959;51.960;5.886;2023-04-03T02:39:33;5.28;;;1.73;;
75377;SDS011;63959;51.960;5.886;2023-04-03T02:42:02;5.53;;;1.80;;
75377;SDS011;63959;51.960;5.886;2023-04-03T02:44:31;5.55;;;1.73;;
75377;SDS011;63959;51.960;5.886;2023-04-03T02:46:59;4.82;;;1.85;;
75377;SDS011;63959;51.960;5.886;2023-04-03T02:49:28;5.03;;;1.83;;
75377;SDS011;63959;51.960;5.886;2023-04-03T02:51:57;5.82;;;1.65;;
75377;SDS011;63959;51.960;5.886;2023-04-03T02:54:26;6.38;;;2.20;;
75377;SDS011;63959;51.960;5.886;2023-04-03T02:57:02;5.63;;;1.60;;
75377;SDS011;63959;51.960;5.886;2023-04-03T02:59:33;7.07;;;1.70;;
75377;SDS011;63959;51.960;5.886;2023-04-03T03:02:05;4.53;;;1.70;;
75377;SDS011;63959;51.960;5.886;2023-04-03T03:04:34;8.50;;;1.73;;
75377;SDS011;63959;51.960;5.886;2023-04-03T03:07:03;6.45;;;2.42;;
75377;SDS011;63959;51.960;5.886;2023-04-03T03:09:32;5.63;;;1.40;;
75377;SDS011;63959;51.960;5.886;2023-04-03T03:12:04;4.13;;;1.52;;
75377;SDS011;63959;51.960;5.886;2023-04-03T03:14:32;7.72;;;1.80;;
75377;SDS011;63959;51.960;5.886;2023-04-03T03:17:01;5.68;;;1.70;;
75377;SDS011;63959;51.960;5.886;2023-04-03T03:19:31;8.20;;;1.70;;
75377;SDS011;63959;51.960;5.886;2023-04-03T03:22:00;4.38;;;1.70;;
75377;SDS011;63959;51.960;5.886;2023-04-03T03:24:32;5.28;;;2.35;;
75377;SDS011;63959;51.960;5.886;2023-04-03T03:27:03;5.63;;;1.58;;
75377;SDS011;63959;51.960;5.886;2023-04-03T03:29:32;6.38;;;1.70;;
75377;SDS011;63959;51.960;5.886;2023-04-03T03:32:03;6.70;;;1.40;;
75377;SDS011;63959;51.960;5.886;2023-04-03T03:34:32;5.35;;;1.88;;
75377;SDS011;63959;51.960;5.886;2023-04-03T03:37:01;5.35;;;2.45;;
75377;SDS011;63959;51.960;5.886;2023-04-03T03:39:30;5.97;;;1.40;;
75377;SDS011;63959;51.960;5.886;2023-04-03T03:41:59;9.93;;;2.22;;
75377;SDS011;63959;51.960;5.886;2023-04-03T03:44:30;7.75;;;1.98;;
75377;SDS011;63959;51.960;5.886;2023-04-03T03:46:59;5.95;;;1.75;;
75377;SDS011;63959;51.960;5.886;2023-04-03T03:49:29;6.70;;;1.80;;
75377;SDS011;63959;51.960;5.886;2023-04-03T03:51:58;6.97;;;1.92;;
75377;SDS011;63959;51.960;5.886;2023-04-03T03:54:27;4.72;;;1.83;;
75377;SDS011;63959;51.960;5.886;2023-04-03T03:56:55;6.95;;;1.88;;
75377;SDS011;63959;51.960;5.886;2023-04-03T03:59:24;5.13;;;2.00;;
75377;SDS011;63959;51.960;5.886;2023-04-03T04:01:56;4.93;;;1.60;;
75377;SDS011;63959;51.960;5.886;2023-04-03T04:04:25;8.90;;;1.90;;
75377;SDS011;63959;51.960;5.886;2023-04-03T04:06:55;6.47;;;2.33;;
75377;SDS011;63959;51.960;5.886;2023-04-03T04:09:23;6.93;;;1.88;;
75377;SDS011;63959;51.960;5.886;2023-04-03T04:11:52;4.07;;;1.63;;
75377;SDS011;63959;51.960;5.886;2023-04-03T04:14:22;7.20;;;2.17;;
75377;SDS011;63959;51.960;5.886;2023-04-03T04:16:52;6.00;;;2.75;;
75377;SDS011;63959;51.960;5.886;2023-04-03T04:19:27;5.25;;;1.80;;
75377;SDS011;63959;51.960;5.886;2023-04-03T04:21:56;6.82;;;2.17;;
75377;SDS011;63959;51.960;5.886;2023-04-03T04:24:25;5.18;;;2.03;;
75377;SDS011;63959;51.960;5.886;2023-04-03T04:26:55;7.00;;;2.10;;
75377;SDS011;63959;51.960;5.886;2023-04-03T04:29:24;8.80;;;2.08;;
75377;SDS011;63959;51.960;5.886;2023-04-03T04:31:53;9.07;;;2.63;;
75377;SDS011;63959;51.960;5.886;2023-04-03T04:34:23;6.47;;;1.95;;
75377;SDS011;63959;51.960;5.886;2023-04-03T04:36:57;4.95;;;1.67;;
75377;SDS011;63959;51.960;5.886;2023-04-03T04:39:27;9.20;;;2.13;;
75377;SDS011;63959;51.960;5.886;2023-04-03T04:41:59;5.22;;;1.85;;
75377;SDS011;63959;51.960;5.886;2023-04-03T04:44:30;6.53;;;2.15;;
75377;SDS011;63959;51.960;5.886;2023-04-03T04:46:59;5.55;;;2.33;;
75377;SDS011;63959;51.960;5.886;2023-04-03T04:49:28;5.05;;;2.05;;
75377;SDS011;63959;51.960;5.886;2023-04-03T04:52:00;5.68;;;1.85;;
75377;SDS011;63959;51.960;5.886;2023-04-03T04:54:31;6.32;;;2.25;;
75377;SDS011;63959;51.960;5.886;2023-04-03T04:57:00;7.53;;;2.25;;
75377;SDS011;63959;51.960;5.886;2023-04-03T04:59:30;6.00;;;2.10;;
75377;SDS011;63959;51.960;5.886;2023-04-03T05:01:58;5.50;;;1.73;;
75377;SDS011;63959;51.960;5.886;2023-04-03T05:04:28;8.00;;;2.13;;
75377;SDS011;63959;51.960;5.886;2023-04-03T05:07:08;8.27;;;1.85;;
75377;SDS011;63959;51.960;5.886;2023-04-03T05:09:37;5.75;;;2.13;;
75377;SDS011;63959;51.960;5.886;2023-04-03T05:12:08;7.90;;;1.80;;
75377;SDS011;63959;51.960;5.886;2023-04-03T05:14:43;7.97;;;2.08;;
75377;SDS011;63959;51.960;5.886;2023-04-03T05:17:12;5.68;;;2.20;;
75377;SDS011;63959;51.960;5.886;2023-04-03T05:19:46;4.82;;;1.92;;
75377;SDS011;63959;51.960;5.886;2023-04-03T05:22:18;5.30;;;2.15;;
75377;SDS011;63959;51.960;5.886;2023-04-03T05:24:51;8.90;;;2.00;;
75377;SDS011;63959;51.960;5.886;2023-04-03T05:27:21;9.98;;;2.05;;
75377;SDS011;63959;51.960;5.886;2023-04-03T05:29:53;6.97;;;1.80;;
75377;SDS011;63959;51.960;5.886;2023-04-03T05:32:22;4.88;;;1.60;;
75377;SDS011;63959;51.960;5.886;2023-04-03T05:35:02;9.13;;;2.20;;
75377;SDS011;63959;51.960;5.886;2023-04-03T05:37:36;8.63;;;2.10;;
75377;SDS011;63959;51.960;5.886;2023-04-03T05:40:06;7.00;;;1.80;;
75377;SDS011;63959;51.960;5.886;2023-04-03T05:42:36;5.95;;;1.70;;
75377;SDS011;63959;51.960;5.886;2023-04-03T05:45:11;7.85;;;2.10;;
75377;SDS011;63959;51.960;5.886;2023-04-03T05:47:40;8.75;;;1.92;;
75377;SDS011;63959;51.960;5.886;2023-04-03T05:50:09;8.75;;;1.88;;
75377;SDS011;63959;51.960;5.886;2023-04-03T05:52:42;4.68;;;1.50;;
75377;SDS011;63959;51.960;5.886;2023-04-03T05:55:13;4.88;;;1.70;;
75377;SDS011;63959;51.960;5.886;2023-04-03T05:57:42;5.25;;;1.75;;
75377;SDS011;63959;51.960;5.886;2023-04-03T06:00:12;7.22;;;1.90;;
75377;SDS011;63959;51.960;5.886;2023-04-03T06:02:43;5.10;;;2.03;;
75377;SDS011;63959;51.960;5.886;2023-04-03T06:05:17;5.15;;;1.48;;
75377;SDS011;63959;51.960;5.886;2023-04-03T06:07:49;5.25;;;1.75;;
75377;SDS011;63959;51.960;5.886;2023-04-03T06:10:17;6.00;;;1.80;;
75377;SDS011;63959;51.960;5.886;2023-04-03T06:12:46;8.82;;;1.80;;
75377;SDS011;63959;51.960;5.886;2023-04-03T06:15:15;7.55;;;1.77;;
75377;SDS011;63959;51.960;5.886;2023-04-03T06:17:44;6.25;;;2.22;;
75377;SDS011;63959;51.960;5.886;2023-04-03T06:20:13;7.50;;;1.70;;
75377;SDS011;63959;51.960;5.886;2023-04-03T06:22:42;6.22;;;1.60;;
75377;SDS011;63959;51.960;5.886;2023-04-03T06:25:14;5.18;;;2.15;;
75377;SDS011;63959;51.960;5.886;2023-04-03T06:27:44;7.18;;;2.25;;
75377;SDS011;63959;51.960;5.886;2023-04-03T06:30:13;6.72;;;2.08;;
75377;SDS011;63959;51.960;5.886;2023-04-03T06:32:42;5.70;;;1.60;;
75377;SDS011;63959;51.960;5.886;2023-04-03T06:35:11;7.15;;;1.77;;
75377;SDS011;63959;51.960;5.886;2023-04-03T06:37:40;5.45;;;1.63;;
75377;SDS011;63959;51.960;5.886;2023-04-03T06:40:10;4.60;;;1.58;;
75377;SDS011;63959;51.960;5.886;2023-04-03T06:42:46;6.47;;;2.28;;
75377;SDS011;63959;51.960;5.886;2023-04-03T06:45:17;7.15;;;1.58;;
75377;SDS011;63959;51.960;5.886;2023-04-03T06:47:47;6.45;;;2.30;;
75377;SDS011;63959;51.960;5.886;2023-04-03T06:50:16;6.93;;;1.73;;
75377;SDS011;63959;51.960;5.886;2023-04-03T06:52:45;6.05;;;1.73;;
75377;SDS011;63959;51.960;5.886;2023-04-03T06:55:14;10.55;;;2.17;;
75377;SDS011;63959;51.960;5.886;2023-04-03T06:57:42;6.60;;;2.30;;
75377;SDS011;63959;51.960;5.886;2023-04-03T07:00:15;4.40;;;1.52;;
75377;SDS011;63959;51.960;5.886;2023-04-03T07:02:44;4.93;;;1.90;;
75377;SDS011;63959;51.960;5.886;2023-04-03T07:05:13;4.22;;;1.67;;
75377;SDS011;63959;51.960;5.886;2023-04-03T07:07:42;7.03;;;2.10;;
75377;SDS011;63959;51.960;5.886;2023-04-03T07:10:11;7.28;;;1.83;;
75377;SDS011;63959;51.960;5.886;2023-04-03T07:12:40;7.70;;;1.95;;
75377;SDS011;63959;51.960;5.886;2023-04-03T07:15:09;6.72;;;1.90;;
75377;SDS011;63959;51.960;5.886;2023-04-03T07:17:41;7.47;;;1.83;;
75377;SDS011;63959;51.960;5.886;2023-04-03T07:20:10;5.63;;;1.83;;
75377;SDS011;63959;51.960;5.886;2023-04-03T07:22:39;6.82;;;1.98;;
75377;SDS011;63959;51.960;5.886;2023-04-03T07:25:08;7.93;;;1.50;;
75377;SDS011;63959;51.960;5.886;2023-04-03T07:27:37;5.95;;;1.88;;
75377;SDS011;63959;51.960;5.886;2023-04-03T07:30:06;5.07;;;1.75;;
75377;SDS011;63959;51.960;5.886;2023-04-03T07:32:35;7.57;;;1.90;;
75377;SDS011;63959;51.960;5.886;2023-04-03T07:35:06;10.48;;;1.98;;
75377;SDS011;63959;51.960;5.886;2023-04-03T07:37:35;4.32;;;1.67;;
75377;SDS011;63959;51.960;5.886;2023-04-03T07:40:05;9.02;;;2.03;;
75377;SDS011;63959;51.960;5.886;2023-04-03T07:42:37;6.32;;;1.65;;
75377;SDS011;63959;51.960;5.886;2023-04-03T07:45:06;7.20;;;1.80;;
75377;SDS011;63959;51.960;5.886;2023-04-03T07:47:35;4.70;;;1.65;;
75377;SDS011;63959;51.960;5.886;2023-04-03T07:50:07;5.22;;;1.80;;
75377;SDS011;63959;51.960;5.886;2023-04-03T07:52:36;5.82;;;1.80;;
75377;SDS011;63959;51.960;5.886;2023-04-03T07:55:05;8.05;;;2.30;;
75377;SDS011;63959;51.960;5.886;2023-04-03T07:57:34;7.22;;;1.73;;
75377;SDS011;63959;51.960;5.886;2023-04-03T08:00:03;10.18;;;1.75;;
75377;SDS011;63959;51.960;5.886;2023-04-03T08:02:37;6.78;;;1.60;;
75377;SDS011;63959;51.960;5.886;2023-04-03T08:05:14;6.93;;;1.70;;
75377;SDS011;63959;51.960;5.886;2023-04-03T08:07:48;5.93;;;1.42;;
75377;SDS011;63959;51.960;5.886;2023-04-03T08:10:17;5.82;;;1.60;;
75377;SDS011;63959;51.960;5.886;2023-04-03T08:12:49;4.82;;;1.45;;
75377;SDS011;63959;51.960;5.886;2023-04-03T08:15:19;3.17;;;1.40;;
75377;SDS011;63959;51.960;5.886;2023-04-03T08:17:48;8.27;;;1.52;;
75377;SDS011;63959;51.960;5.886;2023-04-03T08:20:22;6.78;;;1.63;;
75377;SDS011;63959;51.960;5.886;2023-04-03T08:22:55;5.43;;;1.30;;
75377;SDS011;63959;51.960;5.886;2023-04-03T08:25:24;4.50;;;1.23;;
75377;SDS011;63959;51.960;5.886;2023-04-03T08:27:55;4.30;;;1.42;;
75377;SDS011;63959;51.960;5.886;2023-04-03T08:30:24;7.05;;;1.50;;
75377;SDS011;63959;51.960;5.886;2023-04-03T08:32:52;6.25;;;1.48;;
75377;SDS011;63959;51.960;5.886;2023-04-03T08:35:24;4.93;;;1.48;;
75377;SDS011;63959;51.960;5.886;2023-04-03T08:37:52;5.32;;;1.33;;
75377;SDS011;63959;51.960;5.886;2023-04-03T08:40:22;5.22;;;1.20;;
75377;SDS011;63959;51.960;5.886;2023-04-03T08:42:54;7.25;;;1.30;;
75377;SDS011;63959;51.960;5.886;2023-04-03T08:45:32;5.70;;;1.30;;
75377;SDS011;63959;51.960;5.886;2023-04-03T08:48:05;2.78;;;1.08;;
75377;SDS011;63959;51.960;5.886;2023-04-03T08:50:41;3.75;;;0.90;;
75377;SDS011;63959;51.960;5.886;2023-04-03T08:53:12;5.43;;;2.22;;
75377;SDS011;63959;51.960;5.886;2023-04-03T08:55:44;3.00;;;0.90;;
75377;SDS011;63959;51.960;5.886;2023-04-03T08:58:15;3.70;;;0.95;;
75377;SDS011;63959;51.960;5.886;2023-04-03T09:00:45;3.58;;;1.10;;
75377;SDS011;63959;51.960;5.886;2023-04-03T09:03:16;3.72;;;0.88;;
75377;SDS011;63959;51.960;5.886;2023-04-03T09:05:52;3.92;;;1.05;;
75377;SDS011;63959;51.960;5.886;2023-04-03T09:08:23;3.78;;;1.40;;
75377;SDS011;63959;51.960;5.886;2023-04-03T09:10:57;5.75;;;1.20;;
75377;SDS011;63959;51.960;5.886;2023-04-03T09:13:28;4.20;;;1.10;;
75377;SDS011;63959;51.960;5.886;2023-04-03T09:16:00;2.83;;;0.90;;
75377;SDS011;63959;51.960;5.886;2023-04-03T09:18:31;2.17;;;0.85;;
75377;SDS011;63959;51.960;5.886;2023-04-03T09:21:05;3.30;;;0.77;;
75377;SDS011;63959;51.960;5.886;2023-04-03T09:23:38;2.20;;;0.75;;
75377;SDS011;63959;51.960;5.886;2023-04-03T09:26:13;3.33;;;0.70;;
75377;SDS011;63959;51.960;5.886;2023-04-03T09:28:42;1.77;;;0.60;;
75377;SDS011;63959;51.960;5.886;2023-04-03T09:31:14;2.17;;;0.57;;
75377;SDS011;63959;51.960;5.886;2023-04-03T09:33:47;2.03;;;0.60;;
75377;SDS011;63959;51.960;5.886;2023-04-03T09:39:07;3.67;;;0.80;;
75377;SDS011;63959;51.960;5.886;2023-04-03T09:41:38;2.30;;;0.93;;
75377;SDS011;63959;51.960;5.886;2023-04-03T09:44:17;3.00;;;0.80;;
75377;SDS011;63959;51.960;5.886;2023-04-03T09:46:48;1.33;;;0.70;;
75377;SDS011;63959;51.960;5.886;2023-04-03T09:49:17;3.80;;;0.80;;
75377;SDS011;63959;51.960;5.886;2023-04-03T09:51:46;3.88;;;0.70;;
75377;SDS011;63959;51.960;5.886;2023-04-03T09:57:12;2.45;;;0.90;;
75377;SDS011;63959;51.960;5.886;2023-04-03T09:59:46;2.88;;;0.60;;
75377;SDS011;63959;51.960;5.886;2023-04-03T10:02:22;3.20;;;0.90;;
75377;SDS011;63959;51.960;5.886;2023-04-03T10:04:56;3.05;;;0.90;;
75377;SDS011;63959;51.960;5.886;2023-04-03T10:07:26;3.95;;;0.88;;
75377;SDS011;63959;51.960;5.886;2023-04-03T10:10:16;2.10;;;0.70;;
75377;SDS011;63959;51.960;5.886;2023-04-03T10:12:48;2.28;;;0.80;;
75377;SDS011;63959;51.960;5.886;2023-04-03T10:15:17;2.72;;;0.85;;
75377;SDS011;63959;51.960;5.886;2023-04-03T10:17:49;2.05;;;0.75;;
75377;SDS011;63959;51.960;5.886;2023-04-03T10:20:23;2.42;;;0.90;;
75377;SDS011;63959;51.960;5.886;2023-04-03T10:22:59;2.72;;;0.90;;
75377;SDS011;63959;51.960;5.886;2023-04-03T10:25:31;4.10;;;0.75;;
75377;SDS011;63959;51.960;5.886;2023-04-03T10:28:05;3.92;;;1.00;;
75377;SDS011;63959;51.960;5.886;2023-04-03T10:30:38;4.18;;;0.82;;
75377;SDS011;63959;51.960;5.886;2023-04-03T10:33:16;3.28;;;0.70;;
75377;SDS011;63959;51.960;5.886;2023-04-03T10:35:49;2.78;;;0.90;;
75377;SDS011;63959;51.960;5.886;2023-04-03T10:38:20;2.95;;;0.82;;
75377;SDS011;63959;51.960;5.886;2023-04-03T10:40:55;3.13;;;0.70;;
75377;SDS011;63959;51.960;5.886;2023-04-03T10:43:32;4.10;;;0.77;;
75377;SDS011;63959;51.960;5.886;2023-04-03T10:46:03;4.03;;;0.80;;
75377;SDS011;63959;51.960;5.886;2023-04-03T10:48:40;1.95;;;0.80;;
75377;SDS011;63959;51.960;5.886;2023-04-03T10:51:14;3.72;;;0.82;;
75377;SDS011;63959;51.960;5.886;2023-04-03T10:53:49;2.63;;;0.90;;
75377;SDS011;63959;51.960;5.886;2023-04-03T10:56:22;2.35;;;0.80;;
75377;SDS011;63959;51.960;5.886;2023-04-03T10:58:56;3.35;;;1.17;;
75377;SDS011;63959;51.960;5.886;2023-04-03T11:01:28;2.58;;;0.95;;
75377;SDS011;63959;51.960;5.886;2023-04-03T11:03:59;4.22;;;1.00;;
75377;SDS011;63959;51.960;5.886;2023-04-03T11:06:31;3.45;;;1.00;;
75377;SDS011;63959;51.960;5.886;2023-04-03T11:09:03;3.88;;;0.90;;
75377;SDS011;63959;51.960;5.886;2023-04-03T11:11:35;1.70;;;0.68;;
75377;SDS011;63959;51.960;5.886;2023-04-03T11:14:09;5.80;;;1.02;;
75377;SDS011;63959;51.960;5.886;2023-04-03T11:16:42;2.45;;;0.85;;
75377;SDS011;63959;51.960;5.886;2023-04-03T11:19:13;2.45;;;0.80;;
75377;SDS011;63959;51.960;5.886;2023-04-03T11:21:48;2.85;;;0.77;;
75377;SDS011;63959;51.960;5.886;2023-04-03T11:24:23;3.50;;;0.88;;
75377;SDS011;63959;51.960;5.886;2023-04-03T11:26:59;2.85;;;0.85;;
75377;SDS011;63959;51.960;5.886;2023-04-03T11:29:32;3.50;;;0.77;;
75377;SDS011;63959;51.960;5.886;2023-04-03T11:32:09;2.80;;;0.90;;
75377;SDS011;63959;51.960;5.886;2023-04-03T11:34:40;3.35;;;0.77;;
75377;SDS011;63959;51.960;5.886;2023-04-03T11:37:12;3.60;;;0.90;;
75377;SDS011;63959;51.960;5.886;2023-04-03T11:39:45;5.18;;;1.08;;
75377;SDS011;63959;51.960;5.886;2023-04-03T11:42:16;3.40;;;0.90;;
75377;SDS011;63959;51.960;5.886;2023-04-03T11:44:48;2.97;;;0.88;;
75377;SDS011;63959;51.960;5.886;2023-04-03T11:50:02;2.75;;;0.95;;
75377;SDS011;63959;51.960;5.886;2023-04-03T11:58:03;2.35;;;0.80;;
75377;SDS011;63959;51.960;5.886;2023-04-03T12:08:49;2.92;;;0.93;;
75377;SDS011;63959;51.960;5.886;2023-04-03T12:11:22;6.60;;;1.20;;
75377;SDS011;63959;51.960;5.886;2023-04-03T12:14:02;2.22;;;0.80;;
75377;SDS011;63959;51.960;5.886;2023-04-03T12:16:33;3.03;;;1.02;;
75377;SDS011;63959;51.960;5.886;2023-04-03T12:19:02;4.35;;;1.23;;
75377;SDS011;63959;51.960;5.886;2023-04-03T12:24:26;3.95;;;1.25;;
75377;SDS011;63959;51.960;5.886;2023-04-03T12:27:02;4.90;;;1.20;;
75377;SDS011;63959;51.960;5.886;2023-04-03T12:29:33;3.40;;;0.93;;
75377;SDS011;63959;51.960;5.886;2023-04-03T12:32:06;2.47;;;1.00;;
75377;SDS011;63959;51.960;5.886;2023-04-03T12:34:45;2.47;;;0.90;;
75377;SDS011;63959;51.960;5.886;2023-04-03T12:37:19;3.70;;;0.90;;
75377;SDS011;63959;51.960;5.886;2023-04-03T12:39:54;4.90;;;1.10;;
75377;SDS011;63959;51.960;5.886;2023-04-03T12:45:10;4.40;;;1.10;;
75377;SDS011;63959;51.960;5.886;2023-04-03T12:47:41;4.63;;;1.02;;
75377;SDS011;63959;51.960;5.886;2023-04-03T12:50:16;3.65;;;1.10;;
75377;SDS011;63959;51.960;5.886;2023-04-03T12:52:47;5.45;;;1.35;;
75377;SDS011;63959;51.960;5.886;2023-04-03T12:55:22;6.28;;;1.20;;
75377;SDS011;63959;51.960;5.886;2023-04-03T12:57:52;3.63;;;1.15;;
75377;SDS011;63959;51.960;5.886;2023-04-03T13:00:28;3.78;;;1.00;;
75377;SDS011;63959;51.960;5.886;2023-04-03T13:02:59;3.28;;;1.00;;
75377;SDS011;63959;51.960;5.886;2023-04-03T13:05:28;2.22;;;0.80;;
75377;SDS011;63959;51.960;5.886;2023-04-03T13:07:59;4.72;;;1.02;;
75377;SDS011;63959;51.960;5.886;2023-04-03T13:10:31;3.92;;;1.00;;
75377;SDS011;63959;51.960;5.886;2023-04-03T13:13:07;5.05;;;1.30;;
75377;SDS011;63959;51.960;5.886;2023-04-03T13:15:40;3.58;;;1.00;;
75377;SDS011;63959;51.960;5.886;2023-04-03T13:18:27;4.68;;;1.10;;
75377;SDS011;63959;51.960;5.886;2023-04-03T13:20:57;2.63;;;0.88;;
75377;SDS011;63959;51.960;5.886;2023-04-03T13:23:27;4.20;;;0.90;;
75377;SDS011;63959;51.960;5.886;2023-04-03T13:25:59;4.00;;;1.02;;
75377;SDS011;63959;51.960;5.886;2023-04-03T13:28:29;4.38;;;1.10;;
75377;SDS011;63959;51.960;5.886;2023-04-03T13:31:03;6.22;;;1.30;;
75377;SDS011;63959;51.960;5.886;2023-04-03T13:33:36;5.70;;;1.30;;
75377;SDS011;63959;51.960;5.886;2023-04-03T13:36:06;5.32;;;1.30;;
75377;SDS011;63959;51.960;5.886;2023-04-03T13:38:36;2.78;;;1.15;;
75377;SDS011;63959;51.960;5.886;2023-04-03T13:41:22;4.03;;;1.02;;
75377;SDS011;63959;51.960;5.886;2023-04-03T13:43:51;4.20;;;1.13;;
75377;SDS011;63959;51.960;5.886;2023-04-03T13:46:22;3.95;;;1.20;;
75377;SDS011;63959;51.960;5.886;2023-04-03T13:48:52;4.38;;;1.10;;
75377;SDS011;63959;51.960;5.886;2023-04-03T13:51:22;3.65;;;1.20;;
75377;SDS011;63959;51.960;5.886;2023-04-03T13:53:52;3.58;;;1.17;;
75377;SDS011;63959;51.960;5.886;2023-04-03T13:56:26;3.20;;;1.25;;
75377;SDS011;63959;51.960;5.886;2023-04-03T13:59:00;3.33;;;1.10;;
75377;SDS011;63959;51.960;5.886;2023-04-03T14:01:34;4.65;;;1.15;;
75377;SDS011;63959;51.960;5.886;2023-04-03T14:04:10;3.55;;;1.30;;
75377;SDS011;63959;51.960;5.886;2023-04-03T14:06:39;4.80;;;1.10;;
75377;SDS011;63959;51.960;5.886;2023-04-03T14:09:07;3.30;;;1.08;;
75377;SDS011;63959;51.960;5.886;2023-04-03T14:11:42;4.65;;;1.10;;
75377;SDS011;63959;51.960;5.886;2023-04-03T14:14:19;4.53;;;1.30;;
75377;SDS011;63959;51.960;5.886;2023-04-03T14:16:50;5.13;;;1.30;;
75377;SDS011;63959;51.960;5.886;2023-04-03T14:19:21;4.10;;;1.10;;
75377;SDS011;63959;51.960;5.886;2023-04-03T14:21:50;3.70;;;1.05;;
75377;SDS011;63959;51.960;5.886;2023-04-03T14:24:20;5.45;;;1.25;;
75377;SDS011;63959;51.960;5.886;2023-04-03T14:26:52;4.30;;;1.52;;
75377;SDS011;63959;51.960;5.886;2023-04-03T14:29:21;4.28;;;1.33;;
75377;SDS011;63959;51.960;5.886;2023-04-03T14:31:50;3.75;;;1.15;;
75377;SDS011;63959;51.960;5.886;2023-04-03T14:34:18;5.00;;;1.45;;
75377;SDS011;63959;51.960;5.886;2023-04-03T14:36:47;5.63;;;1.48;;
75377;SDS011;63959;51.960;5.886;2023-04-03T14:39:18;6.50;;;1.25;;
75377;SDS011;63959;51.960;5.886;2023-04-03T14:41:47;2.95;;;1.10;;
75377;SDS011;63959;51.960;5.886;2023-04-03T14:44:18;3.80;;;1.30;;
75377;SDS011;63959;51.960;5.886;2023-04-03T14:46:48;4.55;;;1.30;;
75377;SDS011;63959;51.960;5.886;2023-04-03T14:49:19;4.07;;;1.42;;
75377;SDS011;63959;51.960;5.886;2023-04-03T14:51:52;4.63;;;1.40;;
75377;SDS011;63959;51.960;5.886;2023-04-03T14:54:27;4.35;;;1.30;;
75377;SDS011;63959;51.960;5.886;2023-04-03T14:56:57;4.85;;;1.55;;
75377;SDS011;63959;51.960;5.886;2023-04-03T14:59:29;5.47;;;1.55;;
75377;SDS011;63959;51.960;5.886;2023-04-03T15:01:59;5.97;;;1.17;;
75377;SDS011;63959;51.960;5.886;2023-04-03T15:04:28;3.75;;;1.40;;
75377;SDS011;63959;51.960;5.886;2023-04-03T15:06:56;4.72;;;1.42;;
75377;SDS011;63959;51.960;5.886;2023-04-03T15:09:26;3.65;;;1.50;;
75377;SDS011;63959;51.960;5.886;2023-04-03T15:11:55;4.35;;;1.20;;
75377;SDS011;63959;51.960;5.886;2023-04-03T15:14:24;6.13;;;1.73;;
75377;SDS011;63959;51.960;5.886;2023-04-03T15:16:55;3.50;;;1.10;;
75377;SDS011;63959;51.960;5.886;2023-04-03T15:19:24;5.18;;;1.55;;
75377;SDS011;63959;51.960;5.886;2023-04-03T15:21:53;5.03;;;1.38;;
75377;SDS011;63959;51.960;5.886;2023-04-03T15:24:22;5.07;;;1.45;;
75377;SDS011;63959;51.960;5.886;2023-04-03T15:26:53;4.22;;;1.38;;
75377;SDS011;63959;51.960;5.886;2023-04-03T15:29:25;5.13;;;1.50;;
75377;SDS011;63959;51.960;5.886;2023-04-03T15:32:02;5.47;;;1.42;;
75377;SDS011;63959;51.960;5.886;2023-04-03T15:34:31;5.03;;;1.42;;
75377;SDS011;63959;51.960;5.886;2023-04-03T15:37:08;5.47;;;1.52;;
75377;SDS011;63959;51.960;5.886;2023-04-03T15:39:39;4.07;;;1.30;;